Time;durP1;ratioP1;P1;durP2;ratioP2;P2;SDS_P1;SDS_P2;PMS_P1;PMS_P2;Temp;Humidity;BMP_temperature;BMP_pressure;BME280_temperature;BME280_humidity;BME280_pressure;Samples;Min_cycle;Max_cycle;Signal;HPM_P1;HPM_P2
2022/10/07 00:01:43;;;;;;;3.47;3.17;;;16.10;93.50;;;;;;5096935;28;20718;-44
2022/10/07 00:04:09;;;;;;;4.37;3.20;;;16.10;93.60;;;;;;5095775;28;20432;-45
2022/10/07 00:06:34;;;;;;;5.30;3.40;;;16.10;93.70;;;;;;5077396;28;20187;-45
2022/10/07 00:09:01;;;;;;;5.27;3.67;;;16.10;93.70;;;;;;5077297;28;20599;-44
2022/10/07 00:11:28;;;;;;;7.47;3.70;;;16.10;93.80;;;;;;5078853;28;20212;-44
2022/10/07 00:13:56;;;;;;;5.73;3.70;;;16.10;93.80;;;;;;5077056;28;20427;-44
2022/10/07 00:16:27;;;;;;;7.77;4.53;;;16.10;93.80;;;;;;5077265;28;20795;-45
2022/10/07 00:18:57;;;;;;;5.83;3.93;;;16.10;93.90;;;;;;5077811;28;20429;-46
2022/10/07 00:21:24;;;;;;;5.93;4.00;;;16.10;94.00;;;;;;5079076;28;20511;-45
2022/10/07 00:23:50;;;;;;;7.10;4.10;;;16.10;94.00;;;;;;5078577;28;20460;-45
2022/10/07 00:26:18;;;;;;;6.00;3.73;;;16.00;93.90;;;;;;5078017;28;20429;-45
2022/10/07 00:28:44;;;;;;;5.63;4.00;;;16.00;94.00;;;;;;5078376;28;20464;-45
2022/10/07 00:31:16;;;;;;;4.70;4.20;;;16.00;94.00;;;;;;5077806;28;20950;-45
2022/10/07 00:33:42;;;;;;;6.13;3.77;;;16.00;94.00;;;;;;5077565;28;20181;-45
2022/10/07 00:36:10;;;;;;;5.70;3.80;;;16.00;94.00;;;;;;5078485;28;20410;-44
2022/10/07 00:38:36;;;;;;;7.20;3.90;;;16.00;94.00;;;;;;5077803;28;20185;-44
2022/10/07 00:41:01;;;;;;;6.30;4.00;;;16.00;94.30;;;;;;5077321;28;20418;-45
2022/10/07 00:43:30;;;;;;;6.70;3.37;;;16.00;94.00;;;;;;5077827;28;20276;-45
2022/10/07 00:46:15;;;;;;;3.67;3.33;;;16.00;94.00;;;;;;5078186;28;20184;-44
2022/10/07 00:48:42;;;;;;;6.33;3.77;;;16.00;94.10;;;;;;5076632;28;20438;-44
2022/10/07 00:51:08;;;;;;;6.30;3.80;;;16.00;94.10;;;;;;5077395;28;20469;-46
2022/10/07 00:53:36;;;;;;;5.10;4.30;;;16.00;94.00;;;;;;5077300;28;20420;-47
2022/10/07 00:56:03;;;;;;;10.10;4.90;;;16.00;94.00;;;;;;5076665;28;20469;-45
2022/10/07 00:58:29;;;;;;;5.40;4.03;;;16.00;94.00;;;;;;5077621;28;20424;-43
2022/10/07 01:00:56;;;;;;;4.10;3.50;;;16.00;94.00;;;;;;5077449;28;20422;-44
2022/10/07 01:03:23;;;;;;;4.93;3.90;;;16.00;94.00;;;;;;5076317;28;20415;-44
2022/10/07 01:05:49;;;;;;;5.30;3.77;;;16.00;94.00;;;;;;5077076;28;20456;-45
2022/10/07 01:08:16;;;;;;;4.30;3.90;;;16.00;94.00;;;;;;5075260;28;20445;-46
2022/10/07 01:11:12;;;;;;;4.87;4.10;;;16.00;94.00;;;;;;5076867;28;20681;-44
2022/10/07 01:14:17;;;;;;;4.97;3.37;;;16.00;94.10;;;;;;5076915;28;20681;-44
2022/10/07 01:16:54;;;;;;;5.20;3.67;;;16.00;94.10;;;;;;5075003;28;20532;-45
2022/10/07 01:19:53;;;;;;;6.40;3.93;;;15.90;94.10;;;;;;5076091;28;20468;-44
2022/10/07 01:22:40;;;;;;;5.20;4.40;;;15.90;94.30;;;;;;5077402;28;20428;-46
2022/10/07 01:25:32;;;;;;;5.47;4.30;;;15.90;94.10;;;;;;5077412;28;20407;-45
2022/10/07 01:28:07;;;;;;;5.50;3.90;;;15.90;94.10;;;;;;5077038;28;20500;-45
2022/10/07 01:30:35;;;;;;;4.83;3.50;;;15.90;94.10;;;;;;5076430;28;20424;-43
2022/10/07 01:33:03;;;;;;;4.23;3.43;;;15.90;94.10;;;;;;5076414;28;20442;-45
2022/10/07 01:35:33;;;;;;;5.50;3.80;;;15.90;94.10;;;;;;5075474;28;20717;-46
2022/10/07 01:38:04;;;;;;;5.20;4.00;;;15.90;94.10;;;;;;5074984;28;20542;-45
2022/10/07 01:40:44;;;;;;;4.03;3.40;;;15.90;94.10;;;;;;5075565;28;20411;-44
2022/10/07 01:43:12;;;;;;;4.63;3.33;;;15.90;94.10;;;;;;5076469;28;20816;-44
2022/10/07 01:45:40;;;;;;;4.27;3.37;;;15.90;94.10;;;;;;5077211;28;20516;-46
2022/10/07 01:48:05;;;;;;;6.00;3.43;;;15.80;94.00;;;;;;5075509;28;20431;-44
2022/10/07 01:50:31;;;;;;;5.70;3.47;;;15.80;94.00;;;;;;5076782;28;20671;-46
2022/10/07 01:53:36;;;;;;;5.40;3.50;;;15.90;94.10;;;;;;5075547;28;20208;-44
2022/10/07 01:56:05;;;;;;;6.03;3.90;;;15.90;94.10;;;;;;5072288;28;20477;-45
2022/10/07 01:58:48;;;;;;;3.80;3.30;;;15.80;94.10;;;;;;5077028;28;20418;-45
2022/10/07 02:01:45;;;;;;;6.10;3.60;;;15.80;94.10;;;;;;5076449;28;20428;-44
2022/10/07 02:04:22;;;;;;;5.93;3.87;;;15.80;94.00;;;;;;5076005;28;20410;-45
2022/10/07 02:07:15;;;;;;;3.43;3.10;;;15.80;94.00;;;;;;5076734;28;20429;-44
2022/10/07 02:10:31;;;;;;;5.20;3.83;;;15.80;94.10;;;;;;5076408;28;20454;-44
2022/10/07 02:13:11;;;;;;;5.57;3.43;;;15.80;94.10;;;;;;5037988;28;20491;-45
2022/10/07 02:16:15;;;;;;;8.00;3.17;;;15.80;94.40;;;;;;5075590;28;20408;-46
2022/10/07 02:18:46;;;;;;;5.77;3.57;;;15.80;94.10;;;;;;5077156;28;20418;-43
2022/10/07 02:21:13;;;;;;;5.47;3.60;;;15.80;94.20;;;;;;5080845;28;20416;-44
2022/10/07 02:23:40;;;;;;;6.43;3.50;;;15.80;94.50;;;;;;5080204;28;20462;-43
2022/10/07 02:26:06;;;;;;;6.27;2.97;;;15.80;94.20;;;;;;5079153;28;20435;-43
2022/10/07 02:28:34;;;;;;;5.80;4.07;;;15.80;94.20;;;;;;5080785;28;20445;-45
2022/10/07 02:31:01;;;;;;;3.87;3.20;;;15.80;94.20;;;;;;5078577;28;20466;-46
2022/10/07 02:33:28;;;;;;;6.40;3.80;;;15.80;94.20;;;;;;5079184;28;20427;-47
2022/10/07 02:35:59;;;;;;;3.87;3.47;;;15.80;94.20;;;;;;5080063;28;20504;-45
2022/10/07 02:38:25;;;;;;;6.17;3.70;;;15.70;94.10;;;;;;5079726;28;20424;-44
2022/10/07 02:41:09;;;;;;;4.23;3.80;;;15.70;94.20;;;;;;5078907;28;20717;-45
2022/10/07 02:43:39;;;;;;;4.47;3.73;;;15.70;94.20;;;;;;5078329;28;20213;-46
2022/10/07 02:46:14;;;;;;;6.00;3.53;;;15.70;94.30;;;;;;5079113;28;20413;-43
2022/10/07 02:48:46;;;;;;;3.97;3.23;;;15.70;94.60;;;;;;5078649;28;20429;-46
2022/10/07 02:51:17;;;;;;;4.67;3.40;;;15.70;94.40;;;;;;5079381;28;20501;-44
2022/10/07 02:53:44;;;;;;;3.53;3.23;;;15.70;94.30;;;;;;5077806;28;20461;-43
2022/10/07 02:56:10;;;;;;;3.57;3.23;;;15.70;94.40;;;;;;5078473;28;20465;-45
2022/10/07 02:58:37;;;;;;;4.40;3.27;;;15.70;94.80;;;;;;5079608;28;20487;-45
2022/10/07 03:01:04;;;;;;;5.10;3.33;;;15.70;94.40;;;;;;5077179;28;20270;-47
2022/10/07 03:03:30;;;;;;;5.00;3.00;;;15.70;94.50;;;;;;5078577;28;20444;-46
2022/10/07 03:05:56;;;;;;;8.20;3.70;;;15.70;94.50;;;;;;5078585;28;20512;-45
2022/10/07 03:08:22;;;;;;;4.67;3.40;;;15.70;94.50;;;;;;5077978;28;20193;-44
2022/10/07 03:10:48;;;;;;;6.00;3.90;;;15.70;94.50;;;;;;5078808;28;20539;-46
2022/10/07 03:13:14;;;;;;;3.93;3.03;;;15.70;94.50;;;;;;5078340;28;20507;-44
2022/10/07 03:15:40;;;;;;;4.40;3.57;;;15.70;94.50;;;;;;5079352;28;20175;-49
2022/10/07 03:18:06;;;;;;;4.83;3.47;;;15.70;94.60;;;;;;5077890;28;20201;-44
2022/10/07 03:20:32;;;;;;;3.83;3.00;;;15.60;94.50;;;;;;5076365;28;20498;-45
2022/10/07 03:22:58;;;;;;;4.87;3.70;;;15.70;94.60;;;;;;5076590;28;20445;-45
2022/10/07 03:25:25;;;;;;;4.00;3.60;;;15.60;94.60;;;;;;5076711;28;20205;-45
2022/10/07 03:27:53;;;;;;;4.17;3.40;;;15.60;94.60;;;;;;5077909;28;20462;-45
2022/10/07 03:30:21;;;;;;;4.50;4.03;;;15.60;94.60;;;;;;5077659;28;20454;-45
2022/10/07 03:32:48;;;;;;;4.87;3.70;;;15.60;94.60;;;;;;5076137;28;20555;-44
2022/10/07 03:35:14;;;;;;;4.67;3.50;;;15.60;94.60;;;;;;5078702;28;20419;-44
2022/10/07 03:37:40;;;;;;;4.70;4.07;;;15.60;94.60;;;;;;5079091;28;20509;-46
2022/10/07 03:40:06;;;;;;;5.83;3.80;;;15.60;94.60;;;;;;5078505;28;20414;-44
2022/10/07 03:42:31;;;;;;;3.73;3.30;;;15.60;94.70;;;;;;5078194;28;20222;-46
2022/10/07 03:44:57;;;;;;;4.17;3.30;;;15.60;94.70;;;;;;5078747;28;20418;-44
2022/10/07 03:47:22;;;;;;;6.07;4.13;;;15.60;94.80;;;;;;5079024;28;20190;-46
2022/10/07 03:49:48;;;;;;;6.90;3.87;;;15.60;94.80;;;;;;5077051;28;20183;-44
2022/10/07 03:52:14;;;;;;;4.03;3.17;;;15.60;94.80;;;;;;5078824;28;20209;-43
2022/10/07 03:54:39;;;;;;;4.80;3.60;;;15.60;94.80;;;;;;5076980;28;20206;-43
2022/10/07 03:57:48;;;;;;;4.30;3.07;;;15.60;94.90;;;;;;5077731;28;20578;-44
2022/10/07 03:59:52;;;;;;;4.20;3.10;;;15.60;94.90;;;;;;5076804;28;20187;-45
2022/10/07 04:02:20;;;;;;;6.13;3.10;;;15.60;94.90;;;;;;5075902;28;20708;-44
2022/10/07 04:04:45;;;;;;;5.07;3.63;;;15.50;94.90;;;;;;5074423;28;20432;-46
2022/10/07 04:07:11;;;;;;;3.57;3.10;;;15.50;94.90;;;;;;5074563;28;20717;-44
2022/10/07 04:09:38;;;;;;;4.83;3.37;;;15.50;95.00;;;;;;5074714;28;20182;-43
2022/10/07 04:12:03;;;;;;;8.37;4.00;;;15.50;95.00;;;;;;5074671;28;20214;-44
2022/10/07 04:14:29;;;;;;;5.67;4.13;;;15.50;95.00;;;;;;5075730;28;20832;-44
2022/10/07 04:16:56;;;;;;;4.20;3.27;;;15.50;95.00;;;;;;5076649;28;20172;-44
2022/10/07 04:19:21;;;;;;;5.00;3.90;;;15.50;95.00;;;;;;5078211;28;20184;-45
2022/10/07 04:21:47;;;;;;;3.63;3.20;;;15.50;95.00;;;;;;5077334;28;20426;-44
2022/10/07 04:24:12;;;;;;;5.97;3.47;;;15.50;95.00;;;;;;5076307;28;20174;-45
2022/10/07 04:26:38;;;;;;;7.23;3.23;;;15.50;95.10;;;;;;5074061;28;20569;-45
2022/10/07 04:29:03;;;;;;;4.87;4.03;;;15.40;95.10;;;;;;5074596;28;20482;-45
2022/10/07 04:31:29;;;;;;;5.20;3.50;;;15.40;95.10;;;;;;5074554;28;20203;-43
2022/10/07 04:33:55;;;;;;;5.70;3.60;;;15.40;95.20;;;;;;5075027;28;20174;-45
2022/10/07 04:36:20;;;;;;;5.53;3.90;;;15.40;95.20;;;;;;5075775;28;20420;-44
2022/10/07 04:38:49;;;;;;;6.83;3.90;;;15.40;95.30;;;;;;5074378;28;20249;-43
2022/10/07 04:41:15;;;;;;;5.57;3.30;;;15.40;95.30;;;;;;5073158;28;20203;-47
2022/10/07 04:43:40;;;;;;;3.47;3.17;;;15.40;95.30;;;;;;5073428;28;20483;-43
2022/10/07 04:46:08;;;;;;;4.37;3.63;;;15.40;95.40;;;;;;5075301;28;20182;-45
2022/10/07 04:48:34;;;;;;;4.30;3.33;;;15.40;95.40;;;;;;5075431;28;20198;-46
2022/10/07 04:51:09;;;;;;;4.70;3.10;;;15.40;95.50;;;;;;5073792;28;20844;-47
2022/10/07 04:53:35;;;;;;;4.47;3.37;;;15.40;95.50;;;;;;5071685;28;20543;-44
2022/10/07 04:56:01;;;;;;;6.80;4.07;;;15.30;95.50;;;;;;5071158;28;20466;-44
2022/10/07 04:58:29;;;;;;;6.00;3.40;;;15.30;95.50;;;;;;5072159;28;20452;-44
2022/10/07 05:00:55;;;;;;;5.03;3.27;;;15.30;95.50;;;;;;5072542;28;20689;-46
2022/10/07 05:03:23;;;;;;;5.13;3.37;;;15.30;95.50;;;;;;5071322;28;20827;-45
2022/10/07 05:05:51;;;;;;;4.70;4.10;;;15.30;95.60;;;;;;5073544;28;20440;-46
2022/10/07 05:08:19;;;;;;;3.87;3.27;;;15.30;95.60;;;;;;5073925;28;20520;-46
2022/10/07 05:10:45;;;;;;;4.43;3.57;;;15.20;95.50;;;;;;5072107;28;20426;-43
2022/10/07 05:13:13;;;;;;;3.57;2.87;;;15.20;95.60;;;;;;5073206;28;20435;-42
2022/10/07 05:15:48;;;;;;;7.83;3.60;;;15.10;95.70;;;;;;5072961;28;20419;-46
2022/10/07 05:18:14;;;;;;;3.87;3.30;;;15.00;95.90;;;;;;5070120;28;20509;-43
2022/10/07 05:20:43;;;;;;;4.07;3.17;;;14.90;96.10;;;;;;5081082;28;20929;-44
2022/10/07 05:23:12;;;;;;;4.83;3.83;;;14.90;96.20;;;;;;5090272;28;20184;-45
2022/10/07 05:25:38;;;;;;;5.37;3.77;;;14.90;96.40;;;;;;5090128;28;20411;-44
2022/10/07 05:28:04;;;;;;;4.10;3.00;;;14.80;96.40;;;;;;5088360;28;20768;-44
2022/10/07 05:30:31;;;;;;;4.00;3.60;;;14.80;96.50;;;;;;5090751;28;20388;-44
2022/10/07 05:32:56;;;;;;;6.10;5.00;;;14.80;96.60;;;;;;5088809;28;20871;-44
2022/10/07 05:35:22;;;;;;;5.20;4.00;;;14.80;96.60;;;;;;5088451;28;20580;-43
2022/10/07 05:37:52;;;;;;;5.17;3.97;;;14.80;96.70;;;;;;5079238;28;20207;-43
2022/10/07 05:40:18;;;;;;;6.50;4.53;;;14.90;96.70;;;;;;5084064;28;20375;-47
2022/10/07 05:42:44;;;;;;;5.13;3.77;;;14.90;96.80;;;;;;5086197;28;20788;-42
2022/10/07 05:45:10;;;;;;;4.07;3.57;;;14.90;96.80;;;;;;5085071;28;20830;-44
2022/10/07 05:47:35;;;;;;;5.93;3.70;;;14.90;96.70;;;;;;5082852;28;20491;-42
2022/10/07 05:50:01;;;;;;;4.87;3.43;;;15.00;96.70;;;;;;5084782;28;20178;-43
2022/10/07 05:52:29;;;;;;;6.60;4.57;;;15.00;96.70;;;;;;5083630;28;20300;-44
2022/10/07 05:54:55;;;;;;;4.90;3.63;;;15.10;96.70;;;;;;5086435;28;20263;-43
2022/10/07 05:57:21;;;;;;;6.53;4.53;;;15.10;96.70;;;;;;5091950;28;20506;-44
2022/10/07 05:59:48;;;;;;;4.53;4.03;;;15.20;97.00;;;;;;5089564;28;20861;-43
2022/10/07 06:02:15;;;;;;;4.30;3.77;;;15.30;96.60;;;;;;5087498;28;20623;-45
2022/10/07 06:04:43;;;;;;;5.27;4.13;;;15.30;96.50;;;;;;5090218;28;21043;-45
2022/10/07 06:07:09;;;;;;;6.80;4.80;;;15.50;96.40;;;;;;5090174;28;20416;-45
2022/10/07 06:15:03;;;;;;;5.87;4.10;;;15.80;96.00;;;;;;5095333;28;20420;-43
2022/10/07 06:17:29;;;;;;;6.77;4.00;;;16.00;95.80;;;;;;5094907;28;20822;-43
2022/10/07 06:19:55;;;;;;;4.73;4.17;;;16.20;95.60;;;;;;5093483;28;20433;-45
2022/10/07 06:22:21;;;;;;;5.70;4.23;;;16.30;95.40;;;;;;5091771;28;20251;-44
2022/10/07 06:24:47;;;;;;;4.40;3.73;;;16.50;95.20;;;;;;5091971;28;20415;-45
2022/10/07 06:27:13;;;;;;;4.30;3.60;;;16.70;94.90;;;;;;5093149;28;20427;-44
2022/10/07 06:29:39;;;;;;;4.80;3.63;;;16.90;94.70;;;;;;5092024;28;20708;-45
2022/10/07 06:32:04;;;;;;;4.67;3.00;;;17.10;94.40;;;;;;5094394;28;20275;-44
2022/10/07 06:34:30;;;;;;;11.73;3.93;;;17.30;94.20;;;;;;5095471;28;20172;-44
2022/10/07 06:36:56;;;;;;;7.50;3.40;;;17.60;93.90;;;;;;5093013;28;20420;-46
2022/10/07 06:39:21;;;;;;;7.57;3.70;;;17.80;93.50;;;;;;5093642;28;20207;-44
2022/10/07 06:41:47;;;;;;;4.60;3.80;;;18.00;93.10;;;;;;5093742;28;20319;-43
2022/10/07 06:44:13;;;;;;;4.63;3.33;;;18.30;92.80;;;;;;5091781;28;20180;-45
2022/10/07 06:46:38;;;;;;;4.90;3.27;;;18.60;92.50;;;;;;5092008;28;20194;-46
2022/10/07 06:49:04;;;;;;;4.50;3.50;;;18.90;91.90;;;;;;5094226;28;20527;-47
2022/10/07 06:51:30;;;;;;;5.30;4.00;;;19.30;91.20;;;;;;5095546;28;20200;-43
2022/10/07 06:53:57;;;;;;;6.93;4.57;;;19.80;90.40;;;;;;5093514;28;20464;-45
2022/10/07 06:56:24;;;;;;;4.30;3.23;;;20.20;89.50;;;;;;5094015;28;20469;-45
2022/10/07 06:58:51;;;;;;;5.90;3.80;;;20.60;87.70;;;;;;5095145;28;20485;-44
2022/10/07 07:01:17;;;;;;;3.53;3.23;;;21.00;86.00;;;;;;5094232;28;20457;-44
2022/10/07 07:03:43;;;;;;;7.10;4.33;;;21.40;84.30;;;;;;5093129;28;20411;-43
2022/10/07 07:06:09;;;;;;;7.40;3.53;;;21.70;82.60;;;;;;5094136;28;20571;-46
2022/10/07 07:08:37;;;;;;;5.30;3.60;;;22.00;81.20;;;;;;5096280;28;20421;-45
2022/10/07 07:11:34;;;;;;;4.40;3.70;;;22.10;79.80;;;;;;5097907;28;20786;-45
2022/10/07 07:13:51;;;;;;;4.63;3.77;;;22.30;79.00;;;;;;5097384;28;20466;-44
2022/10/07 07:16:18;;;;;;;5.20;3.53;;;22.40;77.90;;;;;;5096253;28;20415;-45
2022/10/07 07:18:44;;;;;;;6.83;4.03;;;22.50;77.10;;;;;;5097395;28;20839;-48
2022/10/07 07:21:10;;;;;;;17.93;4.23;;;22.70;76.20;;;;;;5096108;28;20728;-44
2022/10/07 07:23:38;;;;;;;5.20;3.40;;;22.80;75.40;;;;;;5094263;28;20433;-44
2022/10/07 07:26:04;;;;;;;6.50;3.40;;;23.00;74.90;;;;;;5096211;28;20187;-46
2022/10/07 07:28:30;;;;;;;5.67;4.00;;;23.30;74.00;;;;;;5078917;28;20424;-44
2022/10/07 07:30:56;;;;;;;3.70;3.37;;;23.70;72.80;;;;;;5096697;28;20836;-45
2022/10/07 07:33:21;;;;;;;4.40;3.40;;;24.20;70.90;;;;;;5096528;28;20180;-45
2022/10/07 07:35:47;;;;;;;3.60;3.30;;;25.00;68.90;;;;;;5098609;28;20431;-44
2022/10/07 07:38:13;;;;;;;5.27;4.77;;;25.80;66.00;;;;;;5098514;28;20245;-45
2022/10/07 07:40:39;;;;;;;4.73;4.10;;;26.50;62.30;;;;;;5095514;28;20417;-45
2022/10/07 07:43:05;;;;;;;5.60;4.10;;;27.20;59.60;;;;;;5095604;28;20224;-45
2022/10/07 07:45:31;;;;;;;5.30;4.67;;;27.80;57.50;;;;;;5097200;28;20189;-43
2022/10/07 07:47:58;;;;;;;4.80;4.40;;;28.30;55.90;;;;;;5095147;28;20449;-47
2022/10/07 07:50:26;;;;;;;4.60;4.20;;;28.90;54.20;;;;;;5094531;28;20487;-44
2022/10/07 07:52:53;;;;;;;5.53;4.20;;;29.50;52.50;;;;;;5097027;28;20482;-48
2022/10/07 07:55:21;;;;;;;6.37;5.27;;;30.10;51.10;;;;;;5097201;28;20431;-45
2022/10/07 07:57:47;;;;;;;5.60;4.50;;;30.60;49.50;;;;;;5096597;28;20550;-44
2022/10/07 08:00:15;;;;;;;5.20;4.73;;;31.00;48.40;;;;;;5094049;28;20451;-43
2022/10/07 08:02:41;;;;;;;5.33;4.83;;;31.40;47.00;;;;;;5097776;28;20418;-46
2022/10/07 08:05:07;;;;;;;5.37;4.87;;;31.80;46.00;;;;;;5096341;28;20440;-45
2022/10/07 08:07:34;;;;;;;5.47;4.97;;;32.10;45.00;;;;;;5095696;28;20411;-46
2022/10/07 08:10:01;;;;;;;6.20;5.70;;;32.60;44.20;;;;;;5092992;28;20233;-45
2022/10/07 08:12:26;;;;;;;6.10;5.50;;;32.70;43.20;;;;;;5094496;28;20976;-46
2022/10/07 08:14:52;;;;;;;5.40;4.90;;;32.90;42.80;;;;;;5095759;28;20476;-46
2022/10/07 08:17:20;;;;;;;5.73;5.07;;;33.10;42.30;;;;;;5096615;28;20190;-47
2022/10/07 08:19:46;;;;;;;5.20;4.70;;;33.50;42.00;;;;;;5095856;28;20184;-48
2022/10/07 08:22:16;;;;;;;5.33;4.60;;;34.10;41.10;;;;;;5077122;28;20422;-44
2022/10/07 08:24:42;;;;;;;4.87;4.40;;;34.40;40.40;;;;;;5096148;28;20187;-47
2022/10/07 08:27:08;;;;;;;5.63;4.20;;;34.80;39.90;;;;;;5096862;28;21065;-46
2022/10/07 08:29:34;;;;;;;4.87;4.23;;;35.30;39.00;;;;;;5097497;28;20454;-45
2022/10/07 08:31:59;;;;;;;4.80;4.30;;;35.80;38.50;;;;;;5095690;28;20228;-47
2022/10/07 08:34:25;;;;;;;4.63;4.23;;;36.20;37.70;;;;;;5097255;28;20212;-44
2022/10/07 08:36:51;;;;;;;6.60;4.63;;;36.50;37.10;;;;;;5098063;28;20182;-45
2022/10/07 08:39:17;;;;;;;6.17;4.27;;;36.80;36.60;;;;;;5096594;28;20528;-44
2022/10/07 08:41:45;;;;;;;5.23;4.70;;;37.10;36.20;;;;;;5097990;28;20510;-46
2022/10/07 08:44:17;;;;;;;4.80;4.37;;;37.30;35.90;;;;;;5097116;28;20686;-45
2022/10/07 08:46:56;;;;;;;4.73;4.30;;;37.70;35.40;;;;;;5094802;28;20515;-48
2022/10/07 08:49:29;;;;;;;5.60;4.93;;;38.00;34.90;;;;;;5092353;28;20423;-46
2022/10/07 08:52:24;;;;;;;5.43;4.77;;;38.30;34.50;;;;;;5080463;28;20467;-47
2022/10/07 08:54:50;;;;;;;4.93;4.37;;;38.60;34.30;;;;;;5090302;28;20442;-44
2022/10/07 08:57:37;;;;;;;5.27;4.77;;;39.00;33.90;;;;;;5058382;28;20525;-46
2022/10/07 09:00:05;;;;;;;5.90;4.70;;;39.20;33.60;;;;;;5075426;28;20419;-45
2022/10/07 09:02:55;;;;;;;5.87;5.30;;;39.50;33.20;;;;;;5073643;28;20805;-45
2022/10/07 09:05:28;;;;;;;4.63;4.20;;;39.80;32.80;;;;;;5075223;28;20417;-45
2022/10/07 09:07:58;;;;;;;5.30;4.80;;;40.20;32.40;;;;;;5073309;28;20766;-46
2022/10/07 09:10:42;;;;;;;5.33;4.83;;;40.30;31.80;;;;;;5075894;28;20439;-47
2022/10/07 09:13:18;;;;;;;6.40;5.37;;;40.60;31.50;;;;;;5076526;28;20474;-47
2022/10/07 09:15:59;;;;;;;4.67;4.37;;;40.90;31.40;;;;;;5077082;28;20918;-46
2022/10/07 09:18:35;;;;;;;5.70;5.17;;;41.00;31.30;;;;;;5075032;28;20450;-44
2022/10/07 09:21:03;;;;;;;5.30;4.80;;;41.20;31.20;;;;;;5076330;28;21044;-47
2022/10/07 09:23:31;;;;;;;6.93;4.80;;;41.50;31.00;;;;;;5076438;28;20528;-48
2022/10/07 09:25:56;;;;;;;6.73;4.43;;;41.80;30.60;;;;;;5076838;28;20429;-46
2022/10/07 09:28:28;;;;;;;6.30;5.13;;;41.90;30.40;;;;;;5072912;28;20434;-44
2022/10/07 09:30:56;;;;;;;5.70;5.20;;;41.80;30.40;;;;;;5075213;28;20569;-46
2022/10/07 09:33:23;;;;;;;6.13;5.50;;;41.80;30.30;;;;;;5080938;28;20451;-46
2022/10/07 09:36:17;;;;;;;4.87;4.50;;;41.60;30.20;;;;;;5075590;28;20439;-48
2022/10/07 09:38:51;;;;;;;5.20;4.80;;;41.40;30.30;;;;;;5086094;28;20437;-45
2022/10/07 09:41:31;;;;;;;5.10;4.60;;;41.30;30.40;;;;;;5094586;28;20526;-46
2022/10/07 09:44:03;;;;;;;5.93;5.37;;;41.20;30.70;;;;;;5094962;28;20406;-44
2022/10/07 09:46:40;;;;;;;7.20;5.90;;;41.20;30.50;;;;;;5093387;28;20419;-46
2022/10/07 09:49:06;;;;;;;5.97;5.47;;;41.00;30.00;;;;;;5093832;28;20836;-47
2022/10/07 09:51:34;;;;;;;5.50;4.97;;;40.80;30.30;;;;;;5079065;28;20475;-46
2022/10/07 09:54:02;;;;;;;5.97;5.40;;;40.70;30.60;;;;;;5072515;28;20423;-48
2022/10/07 09:56:34;;;;;;;5.93;5.47;;;40.70;30.50;;;;;;5074861;28;20476;-46
2022/10/07 09:59:15;;;;;;;5.43;4.97;;;40.70;30.30;;;;;;5073904;28;20523;-46
2022/10/07 10:01:40;;;;;;;5.10;4.67;;;40.70;30.40;;;;;;5075001;28;20721;-47
2022/10/07 10:04:15;;;;;;;6.03;5.53;;;40.70;30.30;;;;;;5074170;28;20422;-46
2022/10/07 10:06:46;;;;;;;5.23;4.43;;;41.00;30.20;;;;;;5057470;28;20194;-45
2022/10/07 10:09:13;;;;;;;5.33;4.80;;;41.20;30.00;;;;;;5072339;28;20763;-47
2022/10/07 10:11:39;;;;;;;6.33;5.77;;;41.80;30.00;;;;;;5073404;28;20478;-45
2022/10/07 10:14:47;;;;;;;5.40;5.00;;;42.20;29.70;;;;;;5075301;28;20461;-47
2022/10/07 10:17:42;;;;;;;5.30;4.90;;;42.70;29.40;;;;;;5013353;28;20193;-47
2022/10/07 10:20:29;;;;;;;4.60;4.20;;;43.20;29.00;;;;;;5072864;28;20774;-45
2022/10/07 10:22:55;;;;;;;5.37;4.73;;;43.50;28.80;;;;;;5070126;28;20736;-45
2022/10/07 10:28:43;;;;;;;5.60;5.10;;;44.20;28.70;;;;;;5069498;28;20436;-44
2022/10/07 10:31:19;;;;;;;7.60;4.63;;;44.80;28.40;;;;;;5071927;28;20439;-45
2022/10/07 10:33:59;;;;;;;5.53;4.93;;;45.20;28.10;;;;;;5054515;28;20431;-46
2022/10/07 10:36:27;;;;;;;4.83;4.43;;;45.80;27.90;;;;;;5071312;28;20427;-44
2022/10/07 10:39:01;;;;;;;6.00;4.30;;;46.30;27.70;;;;;;5071342;28;20709;-47
2022/10/07 10:41:58;;;;;;;6.70;5.47;;;46.50;27.40;;;;;;5057423;28;20450;-42
2022/10/07 10:44:57;;;;;;;5.43;4.87;;;46.70;27.20;;;;;;5070465;28;20495;-44
2022/10/07 10:48:00;;;;;;;4.90;4.40;;;46.60;27.20;;;;;;5075732;28;20431;-44
2022/10/07 10:50:52;;;;;;;4.63;4.27;;;46.10;27.30;;;;;;5093487;28;20437;-46
2022/10/07 10:53:38;;;;;;;5.47;4.40;;;46.00;27.50;;;;;;5095610;28;20575;-47
2022/10/07 10:56:18;;;;;;;4.90;4.40;;;45.90;27.60;;;;;;5099009;28;20522;-46
2022/10/07 10:58:57;;;;;;;4.60;4.20;;;45.00;27.80;;;;;;5100591;28;20427;-48
2022/10/07 11:01:29;;;;;;;5.40;4.80;;;43.90;29.20;;;;;;5096986;28;20981;-54
2022/10/07 11:04:32;;;;;;;6.13;5.53;;;43.30;29.20;;;;;;5097055;28;20435;-49
2022/10/07 11:07:11;;;;;;;8.50;5.27;;;42.30;29.40;;;;;;5078475;28;20420;-51
2022/10/07 11:09:58;;;;;;;5.13;4.70;;;42.50;29.90;;;;;;5075590;28;20419;-52
2022/10/07 11:12:32;;;;;;;5.80;5.40;;;42.90;29.40;;;;;;5073432;28;20474;-47
2022/10/07 11:15:05;;;;;;;5.60;5.10;;;43.70;28.80;;;;;;5072037;28;20727;-48
2022/10/07 11:17:35;;;;;;;4.60;4.30;;;44.20;28.30;;;;;;5072783;28;20455;-49
2022/10/07 11:20:36;;;;;;;6.17;5.57;;;43.50;28.40;;;;;;5074874;28;20813;-48
2022/10/07 11:23:13;;;;;;;5.57;4.90;;;42.50;28.80;;;;;;5040242;28;20547;-49
2022/10/07 11:25:48;;;;;;;5.63;5.13;;;42.40;28.90;;;;;;5072668;28;20691;-47
2022/10/07 11:28:21;;;;;;;4.67;4.27;;;42.30;29.20;;;;;;5071674;28;20426;-50
2022/10/07 11:31:09;;;;;;;5.83;5.33;;;42.50;28.90;;;;;;5071561;28;20422;-47
2022/10/07 11:33:45;;;;;;;4.43;4.13;;;42.20;29.00;;;;;;5066738;28;20443;-48
2022/10/07 11:36:20;;;;;;;5.13;4.73;;;42.40;28.90;;;;;;5068807;28;20573;-47
2022/10/07 11:38:47;;;;;;;5.70;5.00;;;41.60;29.10;;;;;;5066466;28;20475;-47
2022/10/07 11:41:31;;;;;;;7.23;5.00;;;40.40;29.70;;;;;;5071768;28;20761;-50
2022/10/07 11:44:04;;;;;;;5.37;4.87;;;39.30;30.40;;;;;;5068916;28;20713;-50
2022/10/07 11:46:34;;;;;;;5.53;5.13;;;38.70;30.90;;;;;;5071871;28;20424;-48
2022/10/07 11:49:25;;;;;;;4.90;4.57;;;38.30;31.10;;;;;;5090327;28;20728;-48
2022/10/07 11:52:19;;;;;;;5.70;4.87;;;38.00;31.50;;;;;;5092348;28;20467;-51
2022/10/07 11:55:33;;;;;;;6.20;5.80;;;38.30;31.80;;;;;;5087684;28;20460;-48
2022/10/07 11:58:00;;;;;;;6.00;5.50;;;38.50;31.10;;;;;;5086773;28;20438;-49
2022/10/07 12:00:35;;;;;;;5.13;4.67;;;38.30;31.10;;;;;;5074637;28;20426;-49
2022/10/07 12:03:18;;;;;;;4.90;4.40;;;38.50;31.20;;;;;;5091762;28;20422;-48
2022/10/07 12:05:49;;;;;;;6.17;4.90;;;38.70;31.00;;;;;;5091647;28;20434;-51
2022/10/07 12:08:28;;;;;;;5.10;4.70;;;38.50;31.00;;;;;;5089756;28;21096;-47
2022/10/07 12:11:17;;;;;;;5.40;4.90;;;37.90;31.60;;;;;;5074334;28;20477;-49
2022/10/07 12:13:51;;;;;;;4.80;4.40;;;37.30;32.10;;;;;;5071984;28;20462;-47
2022/10/07 12:16:23;;;;;;;5.30;4.80;;;37.90;32.20;;;;;;5070701;28;20417;-47
2022/10/07 12:19:06;;;;;;;6.23;5.63;;;39.10;31.60;;;;;;5084918;28;20691;-51
2022/10/07 12:22:03;;;;;;;4.73;4.33;;;40.40;30.00;;;;;;5091763;28;20921;-46
2022/10/07 12:24:34;;;;;;;5.73;4.70;;;41.60;29.70;;;;;;5092588;28;20409;-49
2022/10/07 12:27:09;;;;;;;5.33;4.37;;;42.40;29.00;;;;;;5093324;28;20434;-48
2022/10/07 12:29:57;;;;;;;6.97;4.90;;;41.50;29.30;;;;;;5091476;28;20419;-47
2022/10/07 12:32:51;;;;;;;5.10;4.60;;;40.00;30.00;;;;;;5090074;28;20493;-47
2022/10/07 12:35:33;;;;;;;5.50;5.10;;;39.40;30.50;;;;;;5091634;28;20532;-48
2022/10/07 12:38:21;;;;;;;5.00;4.60;;;39.80;30.40;;;;;;5092190;28;20439;-51
2022/10/07 12:41:16;;;;;;;6.03;5.13;;;39.80;30.00;;;;;;5085605;28;20458;-48
2022/10/07 12:44:07;;;;;;;5.00;4.50;;;39.20;30.20;;;;;;5089049;28;20840;-45
2022/10/07 12:46:46;;;;;;;4.93;4.53;;;39.40;30.30;;;;;;5092737;28;20436;-47
2022/10/07 12:49:24;;;;;;;5.10;4.67;;;39.80;30.10;;;;;;5093902;28;20443;-47
2022/10/07 12:51:52;;;;;;;5.30;4.90;;;39.80;30.10;;;;;;5075257;28;20826;-46
2022/10/07 12:54:22;;;;;;;5.53;5.03;;;39.70;30.10;;;;;;5092486;28;20423;-49
2022/10/07 12:56:48;;;;;;;4.67;4.27;;;39.00;30.60;;;;;;5093265;28;20475;-46
2022/10/07 12:59:46;;;;;;;5.30;4.90;;;38.20;31.30;;;;;;5093957;28;20781;-47
2022/10/07 13:02:30;;;;;;;4.90;4.50;;;38.00;31.80;;;;;;5092686;28;20479;-50
2022/10/07 13:05:40;;;;;;;7.23;4.90;;;37.60;32.00;;;;;;5092497;28;20431;-49
2022/10/07 13:08:39;;;;;;;5.63;5.23;;;36.70;32.50;;;;;;5093508;28;20494;-47
2022/10/07 13:11:26;;;;;;;6.30;5.70;;;36.00;32.90;;;;;;5091076;28;20414;-47
2022/10/07 13:14:08;;;;;;;5.83;5.30;;;35.70;33.50;;;;;;5093861;28;20508;-49
2022/10/07 13:17:17;;;;;;;5.23;4.70;;;35.60;33.60;;;;;;5094267;28;20742;-46
2022/10/07 13:20:12;;;;;;;5.97;4.80;;;36.30;33.60;;;;;;5072094;28;20416;-48
2022/10/07 13:22:46;;;;;;;4.70;4.30;;;37.40;33.00;;;;;;5082782;28;20450;-50